createdAt,value
2018-09-10T00:00:45.536Z,978.36
2018-09-10T00:01:45.612Z,978.36
2018-09-10T00:02:45.494Z,978.36
2018-09-10T00:03:45.662Z,978.35
2018-09-10T00:04:45.484Z,978.42
2018-09-10T00:05:45.473Z,978.39
2018-09-10T00:06:45.466Z,978.41
2018-09-10T00:07:45.464Z,978.39
2018-09-10T00:08:45.456Z,978.45
2018-09-10T00:09:45.445Z,978.41
2018-09-10T00:10:45.438Z,978.39
2018-09-10T00:11:45.436Z,978.42
2018-09-10T00:12:45.426Z,978.46
2018-09-10T00:13:45.416Z,978.40
2018-09-10T00:14:45.413Z,978.40
2018-09-10T00:15:45.401Z,978.41
2018-09-10T00:16:45.400Z,978.42
2018-09-10T00:17:45.393Z,978.40
2018-09-10T00:18:45.381Z,978.41
2018-09-10T00:19:45.379Z,978.44
2018-09-10T00:20:45.371Z,978.48
2018-09-10T00:21:45.366Z,978.49
2018-09-10T00:22:45.357Z,978.49
2018-09-10T00:23:45.355Z,978.51
2018-09-10T00:24:45.344Z,978.51
2018-09-10T00:25:45.334Z,978.50
2018-09-10T00:26:45.327Z,978.47
2018-09-10T00:27:45.318Z,978.49
2018-09-10T00:28:45.309Z,978.51
2018-09-10T00:29:45.305Z,978.52
2018-09-10T00:30:45.356Z,978.52
2018-09-10T00:31:45.288Z,978.50
2018-09-10T00:32:45.282Z,978.53
2018-09-10T00:33:45.272Z,978.48
2018-09-10T00:34:45.281Z,978.49
2018-09-10T00:35:45.265Z,978.45
2018-09-10T00:36:45.258Z,978.47
2018-09-10T00:37:45.250Z,978.44
2018-09-10T00:38:45.237Z,978.45
2018-09-10T00:39:45.231Z,978.45
2018-09-10T00:40:45.225Z,978.43
2018-09-10T00:41:45.218Z,978.40
2018-09-10T00:42:45.216Z,978.40
2018-09-10T00:43:45.203Z,978.36
2018-09-10T00:44:45.194Z,978.39
2018-09-10T00:45:45.190Z,978.37
2018-09-10T00:46:45.182Z,978.33
2018-09-10T00:47:45.174Z,978.36
2018-09-10T00:48:45.167Z,978.41
2018-09-10T00:49:45.167Z,978.39
2018-09-10T00:50:45.156Z,978.42
2018-09-10T00:51:45.145Z,978.45
2018-09-10T00:52:45.140Z,978.43
2018-09-10T00:53:45.150Z,978.42
2018-09-10T00:54:45.126Z,978.43
2018-09-10T00:55:45.124Z,978.45
2018-09-10T00:56:45.114Z,978.44
2018-09-10T00:57:45.099Z,978.46
2018-09-10T00:58:45.105Z,978.42
2018-09-10T00:59:45.091Z,978.43
2018-09-10T01:00:45.084Z,978.43
2018-09-10T01:01:45.071Z,978.47
2018-09-10T01:02:45.067Z,978.42
2018-09-10T01:03:45.057Z,978.45
2018-09-10T01:04:45.053Z,978.52
2018-09-10T01:05:45.048Z,978.48
2018-09-10T01:06:45.043Z,978.47
2018-09-10T01:07:45.028Z,978.48
2018-09-10T01:08:45.027Z,978.44
2018-09-10T01:09:45.016Z,978.48
2018-09-10T01:10:45.011Z,978.46
2018-09-10T01:11:45.004Z,978.47
2018-09-10T01:12:45.042Z,978.44
2018-09-10T01:13:44.987Z,978.44
2018-09-10T01:14:44.976Z,978.44
2018-09-10T01:15:44.970Z,978.47
2018-09-10T01:16:44.963Z,978.45
2018-09-10T01:17:44.953Z,978.44
2018-09-10T01:18:44.948Z,978.42
2018-09-10T01:19:44.941Z,978.43
2018-09-10T01:20:44.931Z,978.43
2018-09-10T01:21:44.930Z,978.49
2018-09-10T01:22:44.922Z,978.46
2018-09-10T01:23:44.909Z,978.47
2018-09-10T01:24:44.908Z,978.49
2018-09-10T01:25:44.900Z,978.50
2018-09-10T01:26:44.894Z,978.47
2018-09-10T01:27:44.905Z,978.52
2018-09-10T01:28:44.874Z,978.53
2018-09-10T01:29:44.869Z,978.54
2018-09-10T01:30:44.869Z,978.52
2018-09-10T01:31:44.851Z,978.57
2018-09-10T01:32:44.843Z,978.58
2018-09-10T01:33:44.838Z,978.59
2018-09-10T01:34:44.832Z,978.55
2018-09-10T01:35:44.820Z,978.57
2018-09-10T01:36:44.820Z,978.52
2018-09-10T01:37:44.804Z,978.51
2018-09-10T01:38:44.798Z,978.53
2018-09-10T01:39:44.794Z,978.49
2018-09-10T01:40:44.788Z,978.51
2018-09-10T01:41:44.777Z,978.51
2018-09-10T01:42:44.779Z,978.49
2018-09-10T01:43:44.762Z,978.50
2018-09-10T01:44:44.751Z,978.48
2018-09-10T01:45:44.743Z,978.50
2018-09-10T01:46:44.741Z,978.50
2018-09-10T01:47:44.732Z,978.48
2018-09-10T01:48:44.726Z,978.44
2018-09-10T01:49:44.712Z,978.43
2018-09-10T01:50:44.704Z,978.48
2018-09-10T01:51:44.703Z,978.49
2018-09-10T01:52:44.689Z,978.47
2018-09-10T01:53:44.690Z,978.51
2018-09-10T01:54:44.676Z,978.45
2018-09-10T01:55:44.670Z,978.44
2018-09-10T01:56:44.664Z,978.48
2018-09-10T01:57:44.650Z,978.44
2018-09-10T01:58:44.643Z,978.46
2018-09-10T01:59:44.639Z,978.43
2018-09-10T02:00:44.632Z,978.45
2018-09-10T02:01:44.619Z,978.43
2018-09-10T02:02:44.617Z,978.42
2018-09-10T02:03:44.611Z,978.41
2018-09-10T02:04:44.600Z,978.42
2018-09-10T02:05:44.593Z,978.42
2018-09-10T02:06:44.583Z,978.41
2018-09-10T02:07:44.576Z,978.40
2018-09-10T02:08:44.570Z,978.39
2018-09-10T02:09:44.564Z,978.40
2018-09-10T02:10:44.560Z,978.37
2018-09-10T02:11:44.548Z,978.35
2018-09-10T02:12:44.536Z,978.35
2018-09-10T02:13:44.530Z,978.35
2018-09-10T02:14:44.523Z,978.32
2018-09-10T02:15:44.518Z,978.30
2018-09-10T02:16:44.508Z,978.27
2018-09-10T02:17:44.499Z,978.27
2018-09-10T02:18:44.494Z,978.23
2018-09-10T02:19:44.487Z,978.19
2018-09-10T02:20:44.479Z,978.22
2018-09-10T02:21:44.465Z,978.18
2018-09-10T02:22:44.464Z,978.15
2018-09-10T02:23:44.514Z,978.20
2018-09-10T02:24:44.444Z,978.18
2018-09-10T02:25:44.436Z,978.19
2018-09-10T02:26:44.428Z,978.19
2018-09-10T02:27:44.485Z,978.21
2018-09-10T02:28:44.417Z,978.21
2018-09-10T02:29:44.407Z,978.18
2018-09-10T02:30:44.394Z,978.23
2018-09-10T02:31:44.391Z,978.24
2018-09-10T02:32:44.378Z,978.28
2018-09-10T02:33:44.370Z,978.30
2018-09-10T02:34:44.369Z,978.27
2018-09-10T02:35:44.354Z,978.32
2018-09-10T02:36:44.350Z,978.31
2018-09-10T02:37:44.380Z,978.33
2018-09-10T02:38:44.335Z,978.34
2018-09-10T02:39:44.327Z,978.33
2018-09-10T02:40:44.314Z,978.29
2018-09-10T02:41:44.312Z,978.32
2018-09-10T02:42:44.297Z,978.36
2018-09-10T02:43:44.292Z,978.35
2018-09-10T02:44:44.289Z,978.37
2018-09-10T02:45:44.274Z,978.38
2018-09-10T02:46:44.271Z,978.39
2018-09-10T02:47:44.263Z,978.36
2018-09-10T02:48:44.257Z,978.37
2018-09-10T02:49:44.248Z,978.36
2018-09-10T02:50:44.234Z,978.38
2018-09-10T02:51:44.231Z,978.36
2018-09-10T02:52:44.220Z,978.36
2018-09-10T02:53:44.212Z,978.37
2018-09-10T02:54:44.226Z,978.42
2018-09-10T02:55:44.195Z,978.39
2018-09-10T02:56:44.191Z,978.42
2018-09-10T02:57:44.177Z,978.42
2018-09-10T02:58:44.171Z,978.47
2018-09-10T02:59:44.167Z,978.45
2018-09-10T03:00:44.156Z,978.45
2018-09-10T03:01:44.149Z,978.43
2018-09-10T03:02:44.147Z,978.45
2018-09-10T03:03:44.129Z,978.47
2018-09-10T03:04:44.124Z,978.44
2018-09-10T03:05:44.116Z,978.46
2018-09-10T03:06:44.107Z,978.50
2018-09-10T03:07:44.100Z,978.49
2018-09-10T03:08:44.088Z,978.46
2018-09-10T03:09:44.089Z,978.44
2018-09-10T03:10:44.074Z,978.44
2018-09-10T03:11:44.065Z,978.40
2018-09-10T03:12:44.055Z,978.42
2018-09-10T03:13:44.049Z,978.42
2018-09-10T03:14:44.046Z,978.41
2018-09-10T03:15:44.066Z,978.38
2018-09-10T03:16:44.028Z,978.39
2018-09-10T03:17:44.019Z,978.41
2018-09-10T03:18:44.005Z,978.36
2018-09-10T03:19:43.995Z,978.41
2018-09-10T03:20:43.990Z,978.37
2018-09-10T03:21:43.978Z,978.39
2018-09-10T03:22:43.978Z,978.39
2018-09-10T03:23:43.968Z,978.42
2018-09-10T03:24:43.953Z,978.41
2018-09-10T03:25:43.944Z,978.43
2018-09-10T03:26:43.936Z,978.43
2018-09-10T03:27:43.928Z,978.44
2018-09-10T03:28:43.925Z,978.47
2018-09-10T03:29:43.916Z,978.48
2018-09-10T03:30:43.913Z,978.51
2018-09-10T03:31:43.894Z,978.52
2018-09-10T03:32:43.890Z,978.57
2018-09-10T03:33:43.960Z,978.51
2018-09-10T03:34:43.868Z,978.53
2018-09-10T03:35:43.865Z,978.58
2018-09-10T03:36:43.860Z,978.57
2018-09-10T03:37:43.842Z,978.54
2018-09-10T03:38:43.838Z,978.58
2018-09-10T03:39:43.833Z,978.62
2018-09-10T03:40:43.822Z,978.64
2018-09-10T03:41:43.809Z,978.67
2018-09-10T03:42:43.805Z,978.69
2018-09-10T03:43:43.815Z,978.68
2018-09-10T03:44:43.789Z,978.69
2018-09-10T03:45:43.781Z,978.70
2018-09-10T03:46:43.768Z,978.74
2018-09-10T03:47:43.762Z,978.72
2018-09-10T03:48:43.758Z,978.76
2018-09-10T03:49:43.745Z,978.73
2018-09-10T03:50:43.741Z,978.74
2018-09-10T03:51:43.732Z,978.74
2018-09-10T03:52:43.730Z,978.75
2018-09-10T03:53:43.714Z,978.77
2018-09-10T03:54:43.735Z,978.80
2018-09-10T03:55:43.691Z,978.77
2018-09-10T03:56:43.685Z,978.78
2018-09-10T03:57:43.674Z,978.78
2018-09-10T03:58:43.672Z,978.78
2018-09-10T03:59:43.664Z,978.74
2018-09-10T04:00:43.650Z,978.74
2018-09-10T04:01:43.642Z,978.79
2018-09-10T04:02:43.631Z,978.82
2018-09-10T04:03:43.626Z,978.78
2018-09-10T04:04:43.622Z,978.83
2018-09-10T04:05:43.611Z,978.82
2018-09-10T04:06:43.605Z,978.82
2018-09-10T04:07:43.596Z,978.81
2018-09-10T04:08:43.585Z,978.79
2018-09-10T04:09:43.583Z,978.82
2018-09-10T04:10:43.568Z,978.80
2018-09-10T04:11:43.555Z,978.81
2018-09-10T04:12:43.547Z,978.80
2018-09-10T04:13:43.540Z,978.81
2018-09-10T04:14:43.542Z,978.80
2018-09-10T04:15:43.565Z,978.82
2018-09-10T04:16:43.555Z,978.79
2018-09-10T04:17:43.507Z,978.81
2018-09-10T04:18:43.499Z,978.86
2018-09-10T04:19:43.519Z,978.85
2018-09-10T04:20:43.484Z,978.82
2018-09-10T04:21:43.467Z,978.88
2018-09-10T04:22:43.508Z,978.92
2018-09-10T04:23:43.454Z,978.90
2018-09-10T04:24:43.466Z,978.97
2018-09-10T04:25:43.433Z,978.98
2018-09-10T04:26:43.465Z,978.96
2018-09-10T04:27:43.415Z,979.00
2018-09-10T04:28:43.407Z,978.99
2018-09-10T04:29:43.399Z,978.96
2018-09-10T04:30:43.393Z,979.01
2018-09-10T04:31:43.385Z,979.03
2018-09-10T04:32:43.373Z,979.07
2018-09-10T04:33:43.367Z,979.05
2018-09-10T04:34:43.356Z,979.05
2018-09-10T04:35:43.345Z,979.04
2018-09-10T04:36:43.342Z,979.06
2018-09-10T04:37:43.330Z,979.07
2018-09-10T04:38:43.326Z,979.05
2018-09-10T04:39:43.322Z,979.04
2018-09-10T04:40:43.308Z,979.02
2018-09-10T04:41:43.319Z,978.99
2018-09-10T04:42:43.292Z,979.01
2018-09-10T04:43:43.279Z,979.01
2018-09-10T04:44:43.275Z,979.04
2018-09-10T04:45:43.261Z,979.00
2018-09-10T04:46:43.252Z,979.06
2018-09-10T04:47:43.281Z,979.05
2018-09-10T04:48:43.235Z,979.09
2018-09-10T04:49:43.278Z,979.09
2018-09-10T04:50:43.217Z,979.13
2018-09-10T04:51:43.234Z,979.13
2018-09-10T04:52:43.198Z,979.11
2018-09-10T04:53:43.188Z,979.13
2018-09-10T04:54:43.180Z,979.16
2018-09-10T04:55:43.176Z,979.13
2018-09-10T04:56:43.165Z,979.17
2018-09-10T04:57:43.157Z,979.19
2018-09-10T04:58:43.153Z,979.17
2018-09-10T04:59:43.147Z,979.23
2018-09-10T05:00:43.132Z,979.19
2018-09-10T05:01:43.121Z,979.21
2018-09-10T05:02:43.113Z,979.22
2018-09-10T05:03:43.099Z,979.27
2018-09-10T05:04:43.093Z,979.26
2018-09-10T05:05:43.081Z,979.26
2018-09-10T05:06:43.075Z,979.28
2018-09-10T05:07:43.070Z,979.32
2018-09-10T05:08:43.055Z,979.36
2018-09-10T05:09:43.048Z,979.38
2018-09-10T05:10:43.041Z,979.38
2018-09-10T05:11:43.030Z,979.43
2018-09-10T05:12:43.020Z,979.41
2018-09-10T05:13:43.008Z,979.42
2018-09-10T05:14:43.001Z,979.39
2018-09-10T05:15:42.991Z,979.38
2018-09-10T05:16:42.989Z,979.40
2018-09-10T05:17:42.976Z,979.40
2018-09-10T05:18:42.967Z,979.37
2018-09-10T05:19:42.960Z,979.39
2018-09-10T05:20:42.955Z,979.31
2018-09-10T05:21:42.936Z,979.36
2018-09-10T05:22:42.926Z,979.31
2018-09-10T05:23:42.918Z,979.34
2018-09-10T05:24:42.916Z,979.37
2018-09-10T05:25:42.900Z,979.37
2018-09-10T05:26:42.891Z,979.38
2018-09-10T05:27:42.890Z,979.41
2018-09-10T05:28:42.878Z,979.42
2018-09-10T05:29:42.874Z,979.41
2018-09-10T05:30:42.862Z,979.43
2018-09-10T05:31:42.851Z,979.46
2018-09-10T05:32:42.840Z,979.49
2018-09-10T05:33:42.830Z,979.49
2018-09-10T05:34:42.825Z,979.53
2018-09-10T05:35:42.818Z,979.49
2018-09-10T05:36:42.803Z,979.51
2018-09-10T05:37:42.800Z,979.52
2018-09-10T05:38:42.788Z,979.47
2018-09-10T05:39:42.790Z,979.49
2018-09-10T05:40:42.774Z,979.52
2018-09-10T05:41:42.814Z,979.54
2018-09-10T05:42:42.755Z,979.53
2018-09-10T05:43:42.741Z,979.52
2018-09-10T05:44:42.737Z,979.56
2018-09-10T05:45:42.728Z,979.51
2018-09-10T05:46:42.718Z,979.54
2018-09-10T05:47:42.715Z,979.53
2018-09-10T05:48:42.710Z,979.57
2018-09-10T05:49:42.698Z,979.53
2018-09-10T05:50:42.688Z,979.58
2018-09-10T05:51:42.678Z,979.56
2018-09-10T05:52:42.666Z,979.56
2018-09-10T05:53:42.657Z,979.61
2018-09-10T05:54:42.653Z,979.61
2018-09-10T05:55:42.642Z,979.64
2018-09-10T05:56:42.637Z,979.61
2018-09-10T05:57:42.627Z,979.67
2018-09-10T05:58:42.613Z,979.65
2018-09-10T05:59:42.604Z,979.63
2018-09-10T06:00:42.599Z,979.65
2018-09-10T06:01:42.591Z,979.68
2018-09-10T06:02:42.589Z,979.72
2018-09-10T06:03:42.576Z,979.71
2018-09-10T06:04:42.562Z,979.67
2018-09-10T06:05:42.552Z,979.68
2018-09-10T06:06:42.548Z,979.70
2018-09-10T06:07:42.534Z,979.71
2018-09-10T06:08:42.574Z,979.71
2018-09-10T06:09:42.519Z,979.76
2018-09-10T06:10:42.510Z,979.77
2018-09-10T06:11:42.505Z,979.80
2018-09-10T06:12:42.493Z,979.82
2018-09-10T06:13:42.493Z,979.79
2018-09-10T06:14:42.479Z,979.86
2018-09-10T06:15:42.472Z,979.89
2018-09-10T06:16:42.498Z,979.86
2018-09-10T06:17:42.452Z,979.85
2018-09-10T06:18:42.446Z,979.88
2018-09-10T06:19:42.444Z,979.85
2018-09-10T06:20:42.430Z,979.86
2018-09-10T06:21:42.421Z,979.90
2018-09-10T06:22:42.417Z,979.87
2018-09-10T06:23:42.411Z,979.89
2018-09-10T06:24:42.403Z,979.87
2018-09-10T06:25:42.396Z,979.87
2018-09-10T06:26:42.388Z,979.87
2018-09-10T06:27:42.387Z,979.87
2018-09-10T06:28:42.369Z,979.90
2018-09-10T06:29:42.366Z,979.91
2018-09-10T06:30:42.354Z,979.89
2018-09-10T06:31:42.349Z,979.86
2018-09-10T06:32:42.339Z,979.87
2018-09-10T06:33:42.334Z,979.87
2018-09-10T06:34:42.495Z,979.88
2018-09-10T06:35:42.319Z,979.94
2018-09-10T06:36:42.311Z,979.93
2018-09-10T06:37:42.304Z,979.92
2018-09-10T06:38:42.301Z,979.93
2018-09-10T06:39:42.288Z,979.94
2018-09-10T06:40:42.287Z,979.96
2018-09-10T06:41:42.277Z,979.98
2018-09-10T06:42:42.272Z,979.99
2018-09-10T06:43:42.267Z,980.01
2018-09-10T06:44:42.252Z,979.98
2018-09-10T06:45:42.252Z,980.00
2018-09-10T06:46:42.239Z,980.01
2018-09-10T06:47:42.316Z,979.99
2018-09-10T06:48:42.228Z,979.99
2018-09-10T06:49:42.219Z,979.96
2018-09-10T06:50:42.211Z,980.02
2018-09-10T06:51:42.210Z,979.98
2018-09-10T06:52:42.202Z,979.97
2018-09-10T06:53:42.196Z,979.97
2018-09-10T06:54:42.189Z,980.02
2018-09-10T06:55:42.182Z,980.02
2018-09-10T06:56:42.173Z,980.01
2018-09-10T06:57:42.173Z,980.02
2018-09-10T06:58:42.168Z,980.03
2018-09-10T06:59:42.158Z,980.04
2018-09-10T07:00:42.151Z,980.07
2018-09-10T07:01:42.146Z,980.05
2018-09-10T07:02:42.138Z,980.09
2018-09-10T07:03:42.135Z,980.07
2018-09-10T07:04:42.129Z,980.10
2018-09-10T07:05:42.124Z,980.09
2018-09-10T07:06:42.116Z,980.11
2018-09-10T07:07:42.113Z,980.11
2018-09-10T07:08:42.104Z,980.11
2018-09-10T07:09:42.094Z,980.11
2018-09-10T07:10:42.091Z,980.07
2018-09-10T07:11:42.089Z,980.09
2018-09-10T07:12:42.132Z,980.11
2018-09-10T07:13:42.074Z,980.11
2018-09-10T07:14:42.066Z,980.06
2018-09-10T07:15:42.061Z,980.09
2018-09-10T07:16:42.052Z,980.04
2018-09-10T07:17:42.045Z,980.05
2018-09-10T07:18:42.074Z,980.04
2018-09-10T07:19:42.034Z,980.07
2018-09-10T07:20:42.035Z,980.05
2018-09-10T07:21:42.027Z,980.10
2018-09-10T07:22:42.016Z,980.10
2018-09-10T07:23:42.011Z,980.11
2018-09-10T07:24:42.007Z,980.13
2018-09-10T07:25:41.998Z,980.14
2018-09-10T07:26:41.992Z,980.18
2018-09-10T07:27:41.993Z,980.18
2018-09-10T07:28:41.988Z,980.20
2018-09-10T07:29:41.976Z,980.20
2018-09-10T07:30:41.977Z,980.19
2018-09-10T07:31:41.968Z,980.15
2018-09-10T07:32:41.965Z,980.16
2018-09-10T07:33:41.959Z,980.13
2018-09-10T07:34:42.023Z,980.14
2018-09-10T07:35:41.945Z,980.16
2018-09-10T07:36:41.935Z,980.16
2018-09-10T07:37:41.929Z,980.15
2018-09-10T07:38:41.929Z,980.18
2018-09-10T07:39:41.918Z,980.18
2018-09-10T07:40:41.919Z,980.24
2018-09-10T07:41:41.907Z,980.25
2018-09-10T07:42:41.900Z,980.27
2018-09-10T07:43:41.912Z,980.31
2018-09-10T07:44:41.892Z,980.32
2018-09-10T07:45:41.884Z,980.30
2018-09-10T07:46:41.879Z,980.32
2018-09-10T07:47:41.877Z,980.35
2018-09-10T07:48:41.873Z,980.33
2018-09-10T07:49:41.869Z,980.30
2018-09-10T07:50:41.865Z,980.29
2018-09-10T07:51:41.858Z,980.28
2018-09-10T07:52:41.850Z,980.29
2018-09-10T07:53:41.848Z,980.30
2018-09-10T07:54:41.946Z,980.26
2018-09-10T07:55:41.834Z,980.24
2018-09-10T07:56:41.838Z,980.27
2018-09-10T07:57:41.823Z,980.26
2018-09-10T07:58:41.823Z,980.24
2018-09-10T07:59:41.821Z,980.25
2018-09-10T08:00:41.877Z,980.20
2018-09-10T08:01:41.803Z,980.19
2018-09-10T08:02:41.803Z,980.16
2018-09-10T08:03:41.797Z,980.16
2018-09-10T08:04:41.788Z,980.18
2018-09-10T08:05:41.785Z,980.19
2018-09-10T08:06:41.782Z,980.14
2018-09-10T08:07:41.778Z,980.19
2018-09-10T08:08:41.776Z,980.18
2018-09-10T08:09:41.958Z,980.24
2018-09-10T08:10:41.761Z,980.26
2018-09-10T08:11:41.755Z,980.22
2018-09-10T08:12:41.750Z,980.26
2018-09-10T08:13:41.746Z,980.28
2018-09-10T08:14:41.746Z,980.30
2018-09-10T08:15:41.738Z,980.31
2018-09-10T08:16:41.844Z,980.32
2018-09-10T08:17:41.731Z,980.29
2018-09-10T08:18:41.725Z,980.30
2018-09-10T08:19:41.718Z,980.30
2018-09-10T08:20:41.715Z,980.32
2018-09-10T08:21:41.713Z,980.28
2018-09-10T08:22:41.705Z,980.30
2018-09-10T08:23:41.705Z,980.25
2018-09-10T08:24:41.696Z,980.30
2018-09-10T08:25:41.693Z,980.28
2018-09-10T08:26:41.689Z,980.28
2018-09-10T08:27:41.684Z,980.30
2018-09-10T08:28:41.684Z,980.27
2018-09-10T08:29:41.675Z,980.28
2018-09-10T08:30:41.670Z,980.28
2018-09-10T08:31:41.666Z,980.32
2018-09-10T08:32:41.663Z,980.31
2018-09-10T08:33:41.663Z,980.33
2018-09-10T08:34:41.654Z,980.33
2018-09-10T08:35:41.654Z,980.37
2018-09-10T08:36:41.651Z,980.39
2018-09-10T08:37:41.646Z,980.37
2018-09-10T08:38:41.665Z,980.35
2018-09-10T08:39:41.637Z,980.39
2018-09-10T08:40:41.634Z,980.36
2018-09-10T08:41:41.628Z,980.37
2018-09-10T08:42:41.660Z,980.33
2018-09-10T08:43:41.619Z,980.34
2018-09-10T08:44:41.617Z,980.33
2018-09-10T08:45:41.613Z,980.34
2018-09-10T08:46:41.614Z,980.34
2018-09-10T08:47:41.606Z,980.34
2018-09-10T08:48:41.600Z,980.33
2018-09-10T08:49:41.598Z,980.32
2018-09-10T08:50:41.593Z,980.33
2018-09-10T08:51:41.590Z,980.32
2018-09-10T08:52:41.592Z,980.36
2018-09-10T08:53:41.585Z,980.36
2018-09-10T08:54:42.011Z,980.34
2018-09-10T08:55:41.754Z,980.35
2018-09-10T08:56:41.573Z,980.34
2018-09-10T08:57:41.567Z,980.29
2018-09-10T08:58:41.562Z,980.32
2018-09-10T08:59:41.565Z,980.31
2018-09-10T09:00:41.557Z,980.33
2018-09-10T09:01:41.583Z,980.31
2018-09-10T09:02:41.551Z,980.31
2018-09-10T09:03:41.545Z,980.34
2018-09-10T09:04:41.549Z,980.36
2018-09-10T09:05:41.538Z,980.30
2018-09-10T09:06:41.535Z,980.31
2018-09-10T09:07:41.549Z,980.29
2018-09-10T09:08:41.531Z,980.25
2018-09-10T09:09:41.534Z,980.24
2018-09-10T09:10:41.527Z,980.20
2018-09-10T09:11:41.520Z,980.24
2018-09-10T09:12:41.521Z,980.19
2018-09-10T09:13:41.520Z,980.22
2018-09-10T09:14:41.516Z,980.25
2018-09-10T09:15:41.508Z,980.28
2018-09-10T09:16:41.508Z,980.36
2018-09-10T09:17:41.505Z,980.33
2018-09-10T09:18:41.504Z,980.30
2018-09-10T09:19:41.497Z,980.29
2018-09-10T09:20:41.510Z,980.26
2018-09-10T09:21:41.492Z,980.22
2018-09-10T09:22:41.490Z,980.22
2018-09-10T09:23:41.599Z,980.21
2018-09-10T09:24:41.493Z,980.19
2018-09-10T09:25:41.481Z,980.22
2018-09-10T09:26:41.563Z,980.20
2018-09-10T09:27:41.481Z,980.19
2018-09-10T09:28:41.580Z,980.17
2018-09-10T09:29:41.474Z,980.20
2018-09-10T09:30:41.653Z,980.17
2018-09-10T09:31:41.464Z,980.21
2018-09-10T09:32:41.470Z,980.17
2018-09-10T09:33:41.458Z,980.21
2018-09-10T09:34:41.460Z,980.16
2018-09-10T09:35:41.457Z,980.16
2018-09-10T09:36:41.454Z,980.19
2018-09-10T09:37:41.455Z,980.17
2018-09-10T09:38:41.456Z,980.21
2018-09-10T09:39:41.450Z,980.18
2018-09-10T09:40:41.449Z,980.20
2018-09-10T09:41:41.445Z,980.19
2018-09-10T09:42:41.443Z,980.14
2018-09-10T09:43:41.437Z,980.17
2018-09-10T09:44:41.433Z,980.19
2018-09-10T09:45:41.429Z,980.18
2018-09-10T09:46:41.436Z,980.20
2018-09-10T09:47:41.426Z,980.20
2018-09-10T09:48:41.430Z,980.22
2018-09-10T09:49:41.423Z,980.22
2018-09-10T09:50:41.426Z,980.20
2018-09-10T09:51:41.419Z,980.18
2018-09-10T09:52:41.416Z,980.13
2018-09-10T09:53:41.419Z,980.14
2018-09-10T09:54:41.415Z,980.12
2018-09-10T09:55:41.413Z,980.09
2018-09-10T09:56:41.534Z,980.17
2018-09-10T09:57:41.410Z,980.16
2018-09-10T09:58:41.410Z,980.17
2018-09-10T09:59:41.400Z,980.14
2018-09-10T10:00:41.399Z,980.18
2018-09-10T10:01:41.398Z,980.11
2018-09-10T10:02:41.401Z,980.12
2018-09-10T10:03:41.399Z,980.12
2018-09-10T10:04:41.484Z,980.13
2018-09-10T10:05:41.399Z,980.13
2018-09-10T10:06:41.390Z,980.11
2018-09-10T10:07:41.385Z,980.10
2018-09-10T10:08:41.397Z,980.11
2018-09-10T10:09:41.383Z,980.08
2018-09-10T10:10:41.389Z,980.09
2018-09-10T10:11:41.464Z,980.07
2018-09-10T10:12:41.380Z,980.09
2018-09-10T10:13:41.383Z,980.05
2018-09-10T10:14:41.372Z,980.03
2018-09-10T10:15:41.377Z,980.05
2018-09-10T10:16:41.369Z,980.03
2018-09-10T10:17:41.371Z,980.08
2018-09-10T10:18:41.369Z,980.05
2018-09-10T10:19:41.366Z,980.07
2018-09-10T10:20:41.367Z,980.07
2018-09-10T10:21:41.367Z,980.09
2018-09-10T10:22:41.364Z,980.10
2018-09-10T10:23:41.361Z,980.07
2018-09-10T10:24:41.363Z,980.07
2018-09-10T10:25:41.362Z,980.07
2018-09-10T10:26:41.354Z,980.07
2018-09-10T10:27:41.358Z,980.08
2018-09-10T10:28:41.352Z,980.09
2018-09-10T10:29:41.351Z,980.07
2018-09-10T10:30:41.353Z,980.08
2018-09-10T10:31:41.350Z,980.09
2018-09-10T10:32:41.355Z,980.05
2018-09-10T10:33:41.346Z,980.02
2018-09-10T10:34:41.348Z,980.00
2018-09-10T10:35:41.350Z,980.01
2018-09-10T10:36:41.344Z,980.02
2018-09-10T10:37:41.345Z,979.99
2018-09-10T10:38:41.339Z,979.99
2018-09-10T10:39:41.342Z,979.93
2018-09-10T10:40:41.345Z,979.95
2018-09-10T10:41:41.343Z,979.97
2018-09-10T10:42:41.341Z,979.95
2018-09-10T10:43:41.341Z,979.93
2018-09-10T10:44:41.367Z,979.95
2018-09-10T10:45:41.346Z,979.94
2018-09-10T10:46:41.332Z,979.96
2018-09-10T10:47:41.333Z,979.93
2018-09-10T10:48:41.332Z,979.96
2018-09-10T10:49:41.331Z,979.91
2018-09-10T10:50:41.328Z,979.93
2018-09-10T10:51:41.326Z,979.91
2018-09-10T10:52:41.326Z,979.89
2018-09-10T10:53:41.345Z,979.92
2018-09-10T10:54:41.327Z,979.94
2018-09-10T10:55:41.328Z,979.90
2018-09-10T10:56:41.324Z,979.94
2018-09-10T10:57:41.324Z,979.90
2018-09-10T10:58:41.328Z,979.94
2018-09-10T10:59:41.350Z,979.91
2018-09-10T11:00:41.327Z,979.91
2018-09-10T11:01:41.321Z,979.93
2018-09-10T11:02:41.325Z,979.92
2018-09-10T11:03:41.325Z,979.93
2018-09-10T11:04:41.322Z,979.96
2018-09-10T11:05:41.317Z,979.96
2018-09-10T11:06:41.325Z,979.99
2018-09-10T11:07:41.319Z,980.00
2018-09-10T11:08:41.319Z,980.00
2018-09-10T11:09:41.317Z,979.96
2018-09-10T11:10:41.320Z,979.99
2018-09-10T11:11:41.328Z,979.97
2018-09-10T11:12:41.316Z,979.97
2018-09-10T11:13:41.322Z,979.97
2018-09-10T11:14:41.317Z,979.97
2018-09-10T11:15:41.322Z,979.93
2018-09-10T11:16:41.327Z,979.90
2018-09-10T11:17:41.320Z,979.95
2018-09-10T11:18:41.317Z,979.94
2018-09-10T11:19:41.318Z,979.94
2018-09-10T11:20:41.316Z,979.93
2018-09-10T11:21:41.320Z,979.97
2018-09-10T11:22:41.316Z,979.94
2018-09-10T11:23:41.321Z,979.91
2018-09-10T11:24:41.316Z,979.92
2018-09-10T11:25:41.316Z,979.92
2018-09-10T11:26:41.318Z,979.91
2018-09-10T11:27:41.353Z,979.91
2018-09-10T11:28:41.317Z,979.89
2018-09-10T11:29:41.316Z,979.88
2018-09-10T11:30:41.323Z,979.89
2018-09-10T11:31:41.323Z,979.86
2018-09-10T11:32:41.343Z,979.89
2018-09-10T11:33:41.347Z,979.89
2018-09-10T11:34:41.389Z,979.91
2018-09-10T11:35:41.321Z,979.83
2018-09-10T11:36:41.325Z,979.89
2018-09-10T11:37:41.325Z,979.90
2018-09-10T11:38:41.320Z,979.88
2018-09-10T11:39:41.322Z,979.89
2018-09-10T11:40:41.328Z,979.90
2018-09-10T11:41:41.320Z,979.87
2018-09-10T11:42:41.323Z,979.86
2018-09-10T11:43:41.321Z,979.88
2018-09-10T11:44:41.327Z,979.88
2018-09-10T11:45:41.326Z,979.83
2018-09-10T11:46:41.377Z,979.83
2018-09-10T11:47:41.324Z,979.80
2018-09-10T11:48:41.321Z,979.83
2018-09-10T11:49:41.322Z,979.83
2018-09-10T11:50:41.325Z,979.82
2018-09-10T11:51:41.321Z,979.82
2018-09-10T11:52:41.320Z,979.82
2018-09-10T11:53:41.325Z,979.80
2018-09-10T11:54:41.320Z,979.83
2018-09-10T11:55:41.384Z,979.84
2018-09-10T11:56:41.321Z,979.80
2018-09-10T11:57:41.426Z,979.81
2018-09-10T11:58:41.326Z,979.79
2018-09-10T11:59:41.318Z,979.80
2018-09-10T12:00:41.323Z,979.78
2018-09-10T12:01:41.330Z,979.79
2018-09-10T12:02:41.323Z,979.77
2018-09-10T12:03:41.317Z,979.75
2018-09-10T12:04:41.318Z,979.77
2018-09-10T12:05:41.317Z,979.79
2018-09-10T12:06:41.327Z,979.74
2018-09-10T12:07:41.320Z,979.75
2018-09-10T12:08:41.318Z,979.78
2018-09-10T12:09:41.317Z,979.77
2018-09-10T12:10:41.318Z,979.76
2018-09-10T12:11:41.323Z,979.76
2018-09-10T12:12:41.322Z,979.77
2018-09-10T12:13:41.435Z,979.78
2018-09-10T12:14:41.319Z,979.76
2018-09-10T12:15:41.316Z,979.74
2018-09-10T12:16:41.328Z,979.71
2018-09-10T12:17:41.321Z,979.73
2018-09-10T12:18:41.321Z,979.72
2018-09-10T12:19:41.316Z,979.68
2018-09-10T12:20:41.319Z,979.75
2018-09-10T12:21:41.396Z,979.71
2018-09-10T12:22:41.323Z,979.71
2018-09-10T12:23:41.317Z,979.70
2018-09-10T12:24:41.319Z,979.74
2018-09-10T12:25:41.314Z,979.74
2018-09-10T12:26:41.383Z,979.76
2018-09-10T12:27:41.316Z,979.78
2018-09-10T12:28:41.321Z,979.77